createdAt,value
2019-02-16T00:02:02.411Z,79.32
2019-02-16T00:04:32.703Z,79.64
2019-02-16T00:07:02.944Z,79.61
2019-02-16T00:09:33.307Z,79.43
2019-02-16T00:12:03.869Z,79.55
2019-02-16T00:14:34.145Z,79.59
2019-02-16T00:17:04.408Z,79.80
2019-02-16T00:19:35.062Z,79.50
2019-02-16T00:22:05.316Z,79.45
2019-02-16T00:24:36.465Z,79.61
2019-02-16T00:27:06.717Z,80.87
2019-02-16T00:29:37.179Z,82.17
2019-02-16T00:32:07.429Z,82.83
2019-02-16T00:34:37.886Z,82.88
2019-02-16T00:37:08.141Z,83.26
2019-02-16T00:39:39.297Z,83.15
2019-02-16T00:42:09.834Z,83.15
2019-02-16T00:44:40.115Z,83.31
2019-02-16T00:47:10.369Z,83.18
2019-02-16T00:49:40.656Z,83.19
2019-02-16T00:52:10.912Z,83.12
2019-02-16T00:54:42.079Z,83.04
2019-02-16T00:57:12.341Z,82.74
2019-02-16T00:59:42.611Z,82.64
2019-02-16T01:02:12.868Z,82.72
2019-02-16T01:04:43.146Z,83.07
2019-02-16T01:07:13.412Z,82.83
2019-02-16T01:09:43.682Z,82.77
2019-02-16T01:12:13.950Z,82.99
2019-02-16T01:14:44.227Z,82.64
2019-02-16T01:17:14.480Z,82.52
2019-02-16T01:19:44.761Z,83.20
2019-02-16T01:22:15.031Z,83.25
2019-02-16T01:24:45.318Z,82.97
2019-02-16T01:27:15.569Z,82.98
2019-02-16T01:29:45.850Z,82.54
2019-02-16T01:32:16.117Z,82.52
2019-02-16T01:34:46.385Z,82.92
2019-02-16T01:37:16.635Z,83.09
2019-02-16T01:39:47.060Z,83.07
2019-02-16T01:42:17.311Z,83.17
2019-02-16T01:44:47.565Z,83.22
2019-02-16T01:47:17.829Z,83.15
2019-02-16T01:49:48.076Z,83.31
2019-02-16T01:52:18.336Z,83.49
2019-02-16T01:54:48.581Z,83.53
2019-02-16T01:57:18.843Z,83.30
2019-02-16T01:59:49.092Z,83.20
2019-02-16T02:02:19.368Z,83.02
2019-02-16T02:04:49.621Z,83.01
2019-02-16T02:07:19.889Z,82.97
2019-02-16T02:09:50.137Z,83.02
2019-02-16T02:12:20.482Z,83.50
2019-02-16T02:14:52.355Z,83.49
2019-02-16T02:17:22.623Z,83.32
2019-02-16T02:19:52.875Z,83.68
2019-02-16T02:22:23.149Z,83.51
2019-02-16T02:24:53.398Z,83.96
2019-02-16T02:27:23.666Z,82.79
2019-02-16T02:29:53.919Z,82.62
2019-02-16T02:32:24.188Z,83.02
2019-02-16T02:34:54.433Z,83.22
2019-02-16T02:37:24.707Z,83.48
2019-02-16T02:39:56.069Z,83.62
2019-02-16T02:42:26.338Z,83.63
2019-02-16T02:44:56.598Z,83.27
2019-02-16T02:47:26.857Z,83.45
2019-02-16T02:49:57.111Z,83.34
2019-02-16T02:52:27.377Z,83.37
2019-02-16T02:54:57.631Z,83.00
2019-02-16T02:57:27.919Z,83.11
2019-02-16T02:59:58.164Z,83.30
2019-02-16T03:02:28.432Z,82.79
2019-02-16T03:04:58.687Z,83.00
2019-02-16T03:07:28.961Z,83.54
2019-02-16T03:09:59.215Z,83.42
2019-02-16T03:12:29.486Z,83.46
2019-02-16T03:14:59.734Z,83.14
2019-02-16T03:17:30.011Z,83.00
2019-02-16T03:20:00.346Z,82.99
2019-02-16T03:23:07.053Z,82.86
2019-02-16T03:25:37.375Z,83.16
2019-02-16T03:28:26.153Z,82.96
2019-02-16T03:31:31.398Z,82.84
2019-02-16T03:34:21.137Z,82.69
2019-02-16T03:37:13.951Z,82.78
2019-02-16T03:39:45.580Z,82.73
2019-02-16T03:42:15.809Z,82.96
2019-02-16T03:44:46.077Z,82.86
2019-02-16T03:47:16.333Z,82.67
2019-02-16T03:49:46.602Z,82.93
2019-02-16T03:52:16.874Z,82.72
2019-02-16T03:54:47.138Z,82.78
2019-02-16T03:57:17.391Z,82.74
2019-02-16T03:59:47.662Z,82.72
2019-02-16T04:02:17.921Z,83.13
2019-02-16T04:04:48.192Z,83.28
2019-02-16T04:07:18.448Z,83.27
2019-02-16T04:09:48.729Z,83.49
2019-02-16T04:12:18.969Z,82.95
2019-02-16T04:14:49.237Z,82.60
2019-02-16T04:17:19.490Z,82.17
2019-02-16T04:19:49.767Z,81.83
2019-02-16T04:22:24.634Z,82.08
2019-02-16T04:24:52.061Z,82.19
2019-02-16T04:27:22.311Z,82.45
2019-02-16T04:29:52.581Z,82.03
2019-02-16T04:32:22.835Z,81.87
2019-02-16T04:34:53.107Z,81.67
2019-02-16T04:37:23.632Z,81.64
2019-02-16T04:39:53.904Z,81.77
2019-02-16T04:42:24.157Z,82.00
2019-02-16T04:44:54.593Z,82.20
2019-02-16T04:47:24.844Z,81.87
2019-02-16T04:49:55.115Z,81.72
2019-02-16T04:52:34.318Z,81.44
2019-02-16T04:54:57.510Z,80.86
2019-02-16T04:57:27.761Z,80.70
2019-02-16T04:59:58.025Z,79.75
2019-02-16T05:02:28.282Z,79.73
2019-02-16T05:04:58.615Z,79.58
2019-02-16T05:07:28.867Z,78.47
2019-02-16T05:09:59.142Z,78.65
2019-02-16T05:12:29.863Z,78.47
2019-02-16T05:15:00.302Z,78.55
2019-02-16T05:17:30.567Z,78.44
2019-02-16T05:20:00.839Z,78.74
2019-02-16T05:22:31.357Z,78.34
2019-02-16T05:25:01.627Z,78.34
2019-02-16T05:27:33.115Z,78.04
2019-02-16T05:30:03.949Z,77.98
2019-02-16T05:32:34.372Z,77.74
2019-02-16T05:35:05.594Z,77.54
2019-02-16T05:37:35.839Z,77.16
2019-02-16T05:40:08.519Z,77.57
2019-02-16T05:42:38.919Z,77.59
2019-02-16T05:45:09.661Z,77.31
2019-02-16T05:47:39.912Z,77.09
2019-02-16T05:50:10.179Z,76.97
2019-02-16T05:52:42.546Z,76.59
2019-02-16T05:55:12.805Z,76.21
2019-02-16T05:57:43.061Z,76.93
2019-02-16T06:00:14.298Z,76.88
2019-02-16T06:02:44.721Z,76.95
2019-02-16T06:05:14.997Z,76.91
2019-02-16T06:07:45.246Z,77.12
2019-02-16T06:10:15.519Z,76.68
2019-02-16T06:12:46.235Z,77.44
2019-02-16T06:15:16.780Z,77.97
2019-02-16T06:17:47.147Z,77.90
2019-02-16T06:20:17.484Z,77.99
2019-02-16T06:22:47.738Z,77.94
2019-02-16T06:25:18.012Z,77.48
2019-02-16T06:27:48.275Z,76.21
2019-02-16T06:30:18.537Z,74.47
2019-02-16T06:32:48.794Z,73.33
2019-02-16T06:35:35.654Z,72.41
2019-02-16T06:38:05.905Z,69.37
2019-02-16T06:40:36.170Z,66.09
2019-02-16T06:43:06.417Z,64.69
2019-02-16T06:45:36.692Z,62.44
2019-02-16T06:48:06.942Z,60.41
2019-02-16T06:50:37.397Z,59.95
2019-02-16T06:53:13.258Z,59.34
2019-02-16T06:55:41.434Z,55.24
2019-02-16T06:58:11.688Z,56.33
2019-02-16T07:00:41.944Z,52.64
2019-02-16T07:03:12.207Z,52.28
2019-02-16T07:05:42.458Z,51.22
2019-02-16T07:08:12.731Z,49.46
2019-02-16T07:10:42.986Z,49.39
2019-02-16T07:13:13.376Z,45.28
2019-02-16T07:15:45.304Z,46.17
2019-02-16T07:18:25.937Z,46.15
2019-02-16T07:20:56.318Z,44.19
2019-02-16T07:23:26.568Z,42.82
2019-02-16T07:25:56.832Z,42.84
2019-02-16T07:28:27.102Z,40.66
2019-02-16T07:30:57.358Z,39.94
2019-02-16T07:33:28.702Z,39.62
2019-02-16T07:35:58.977Z,38.74
2019-02-16T07:38:29.247Z,37.25
2019-02-16T07:40:59.660Z,37.75
2019-02-16T07:43:37.294Z,37.14
2019-02-16T07:46:11.872Z,36.58
2019-02-16T07:48:49.745Z,36.41
2019-02-16T07:51:27.353Z,35.33
2019-02-16T07:54:05.125Z,35.99
2019-02-16T07:56:37.041Z,36.13
2019-02-16T07:59:14.675Z,36.08
2019-02-16T08:01:56.735Z,35.46
2019-02-16T08:04:26.923Z,35.45
2019-02-16T08:06:58.826Z,35.56
2019-02-16T08:09:36.680Z,36.10
2019-02-16T08:12:08.956Z,35.98
2019-02-16T08:14:40.865Z,35.67
2019-02-16T08:17:24.821Z,35.95
2019-02-16T08:20:13.730Z,35.34
2019-02-16T08:22:45.689Z,35.90
2019-02-16T08:25:33.498Z,35.47
2019-02-16T08:28:17.334Z,35.29
2019-02-16T08:31:04.226Z,35.08
2019-02-16T08:33:50.884Z,35.37
2019-02-16T08:36:28.505Z,35.05
2019-02-16T08:39:09.168Z,35.85
2019-02-16T08:41:41.110Z,35.69
2019-02-16T08:44:18.807Z,36.17
2019-02-16T08:46:54.578Z,36.79
2019-02-16T08:49:35.572Z,36.85
2019-02-16T08:52:23.521Z,37.38
2019-02-16T08:54:58.343Z,36.89
2019-02-16T08:57:36.181Z,37.07
2019-02-16T09:00:25.662Z,38.65
2019-02-16T09:02:57.581Z,43.62
2019-02-16T09:05:29.481Z,47.40
2019-02-16T09:08:05.363Z,49.34
2019-02-16T09:10:37.990Z,51.79
2019-02-16T09:13:15.720Z,53.39
2019-02-16T09:15:47.608Z,54.02
2019-02-16T09:18:19.689Z,54.96
2019-02-16T09:20:51.600Z,55.36
2019-02-16T09:23:23.490Z,56.22
2019-02-16T09:26:09.103Z,55.95
2019-02-16T09:28:43.705Z,56.06
2019-02-16T09:31:24.455Z,55.17
2019-02-16T09:33:56.613Z,55.96
2019-02-16T09:36:28.520Z,56.62
2019-02-16T09:39:03.147Z,55.83
2019-02-16T09:41:38.061Z,56.47
2019-02-16T09:44:10.136Z,56.14
2019-02-16T09:46:42.058Z,56.38
2019-02-16T09:49:16.693Z,55.66
2019-02-16T09:52:06.948Z,56.83
2019-02-16T09:54:39.032Z,56.24
2019-02-16T09:57:10.943Z,54.97
2019-02-16T09:59:58.317Z,55.56
2019-02-16T10:02:30.258Z,55.23
2019-02-16T10:05:02.150Z,54.30
2019-02-16T10:07:51.456Z,54.33
2019-02-16T10:10:35.319Z,53.60
2019-02-16T10:13:16.189Z,51.71
2019-02-16T10:15:59.888Z,51.69
2019-02-16T10:18:48.233Z,51.74
2019-02-16T10:21:20.153Z,49.92
2019-02-16T10:24:17.586Z,48.37
2019-02-16T10:26:46.563Z,47.45
2019-02-16T10:29:18.477Z,48.21
2019-02-16T10:31:50.874Z,49.07
2019-02-16T10:34:45.639Z,46.79
2019-02-16T10:37:20.756Z,46.66
2019-02-16T10:40:10.526Z,46.31
2019-02-16T10:42:51.700Z,46.58
2019-02-16T10:45:41.676Z,46.76
2019-02-16T10:48:22.528Z,45.80
2019-02-16T10:50:57.296Z,45.59
2019-02-16T10:53:31.877Z,46.39
2019-02-16T10:56:03.802Z,45.00
2019-02-16T10:58:35.714Z,45.38
2019-02-16T11:01:07.642Z,44.73
2019-02-16T11:03:51.405Z,44.26
2019-02-16T11:06:29.022Z,44.87
2019-02-16T11:09:02.139Z,43.75
2019-02-16T11:11:35.644Z,44.44
2019-02-16T11:14:07.631Z,43.45
2019-02-16T11:16:48.397Z,43.78
2019-02-16T11:19:20.290Z,43.69
2019-02-16T11:22:10.124Z,42.77
2019-02-16T11:24:48.204Z,42.94
2019-02-16T11:27:29.408Z,43.43
2019-02-16T11:30:15.633Z,43.39
2019-02-16T11:32:56.624Z,42.74
2019-02-16T11:35:34.513Z,42.40
2019-02-16T11:38:22.395Z,42.06
2019-02-16T11:41:08.723Z,42.56
2019-02-16T11:43:41.101Z,41.92
2019-02-16T11:46:14.790Z,41.94
2019-02-16T11:48:49.405Z,42.51
2019-02-16T11:51:24.329Z,41.21
2019-02-16T11:53:59.394Z,41.47
2019-02-16T11:56:40.150Z,40.96
2019-02-16T11:59:23.800Z,40.95
2019-02-16T12:01:55.706Z,41.38
2019-02-16T12:04:31.817Z,41.30
2019-02-16T12:07:19.862Z,41.10
2019-02-16T12:09:51.754Z,40.80
2019-02-16T12:12:23.658Z,40.87
2019-02-16T12:14:55.547Z,40.46
2019-02-16T12:17:33.432Z,41.50
2019-02-16T12:20:11.794Z,39.96
2019-02-16T12:22:46.625Z,40.77
2019-02-16T12:25:18.526Z,40.40
2019-02-16T12:27:50.437Z,39.67
2019-02-16T12:30:28.207Z,39.74
2019-02-16T12:33:00.131Z,40.73
2019-02-16T12:35:50.260Z,40.27
2019-02-16T12:38:22.174Z,39.20
2019-02-16T12:40:56.981Z,39.18
2019-02-16T12:43:28.896Z,40.02
2019-02-16T12:46:15.802Z,39.73
2019-02-16T12:48:56.860Z,39.79
2019-02-16T12:51:34.637Z,39.80
2019-02-16T12:54:06.546Z,39.07
2019-02-16T12:56:53.682Z,39.65
2019-02-16T12:59:28.541Z,39.90
2019-02-16T13:02:00.437Z,38.91
2019-02-16T13:04:35.317Z,39.23
2019-02-16T13:07:07.238Z,38.72
2019-02-16T13:09:42.101Z,39.39
2019-02-16T13:12:16.689Z,39.71
2019-02-16T13:14:51.527Z,39.48
2019-02-16T13:17:39.705Z,39.10
2019-02-16T13:20:14.335Z,39.09
2019-02-16T13:22:52.205Z,38.90
2019-02-16T13:25:36.097Z,39.52
2019-02-16T13:28:14.090Z,39.31
2019-02-16T13:31:01.267Z,39.61
2019-02-16T13:33:35.849Z,39.95
2019-02-16T13:36:21.214Z,39.84
2019-02-16T13:39:00.122Z,39.65
2019-02-16T13:41:34.602Z,39.89
2019-02-16T13:44:09.444Z,40.23
2019-02-16T13:46:42.379Z,40.60
2019-02-16T13:49:20.119Z,40.73
2019-02-16T13:51:58.127Z,40.61
2019-02-16T13:54:36.147Z,40.82
2019-02-16T13:57:09.151Z,40.77
2019-02-16T13:59:44.195Z,41.06
2019-02-16T14:02:16.114Z,41.67
2019-02-16T14:04:48.016Z,42.07
2019-02-16T14:07:26.945Z,41.91
2019-02-16T14:09:58.843Z,41.87
2019-02-16T14:12:48.681Z,42.12
2019-02-16T14:15:23.736Z,42.40
2019-02-16T14:17:54.024Z,41.96
2019-02-16T14:20:24.285Z,42.13
2019-02-16T14:22:54.631Z,42.98
2019-02-16T14:25:26.528Z,43.20
2019-02-16T14:27:56.817Z,43.44
2019-02-16T14:30:27.076Z,44.04
2019-02-16T14:32:57.358Z,44.06
2019-02-16T14:35:30.611Z,44.10
2019-02-16T14:38:02.536Z,44.48
2019-02-16T14:40:32.950Z,44.75
2019-02-16T14:43:03.222Z,44.74
2019-02-16T14:45:35.127Z,44.90
2019-02-16T14:48:06.266Z,45.02
2019-02-16T14:50:36.523Z,45.30
2019-02-16T14:53:06.806Z,45.60
2019-02-16T14:55:37.065Z,45.91
2019-02-16T14:58:07.377Z,45.77
2019-02-16T15:00:38.593Z,46.38
2019-02-16T15:03:08.889Z,46.43
2019-02-16T15:05:39.156Z,46.43
2019-02-16T15:08:09.587Z,46.88
2019-02-16T15:10:39.937Z,47.27
2019-02-16T15:13:10.220Z,47.15
2019-02-16T15:15:43.536Z,47.18
2019-02-16T15:18:13.881Z,47.45
2019-02-16T15:20:44.846Z,47.67
2019-02-16T15:23:15.240Z,47.79
2019-02-16T15:25:47.601Z,47.87
2019-02-16T15:28:17.900Z,48.20
2019-02-16T15:30:48.328Z,48.44
2019-02-16T15:33:18.634Z,48.57
2019-02-16T15:35:49.072Z,48.59
2019-02-16T15:38:23.068Z,48.75
2019-02-16T15:40:53.514Z,48.96
2019-02-16T15:43:24.787Z,49.29
2019-02-16T15:45:55.049Z,49.61
2019-02-16T15:48:26.333Z,49.91
2019-02-16T15:50:56.641Z,50.32
2019-02-16T15:53:26.917Z,50.92
2019-02-16T15:55:57.196Z,51.49
2019-02-16T15:58:27.603Z,52.47
2019-02-16T16:00:57.970Z,52.71
2019-02-16T16:03:28.287Z,53.20
2019-02-16T16:05:59.738Z,53.44
2019-02-16T16:08:35.547Z,53.41
2019-02-16T16:11:07.479Z,53.89
2019-02-16T16:13:52.833Z,54.21
2019-02-16T16:16:34.893Z,54.75
2019-02-16T16:19:13.903Z,55.22
2019-02-16T16:21:58.616Z,55.75
2019-02-16T16:24:46.796Z,55.96
2019-02-16T16:27:26.746Z,57.25
2019-02-16T16:30:03.646Z,57.64
2019-02-16T16:32:37.625Z,58.64
2019-02-16T16:35:12.813Z,58.54
2019-02-16T16:37:44.735Z,59.40
2019-02-16T16:40:35.266Z,60.17
2019-02-16T16:43:13.085Z,60.29
2019-02-16T16:45:45.046Z,60.92
2019-02-16T16:48:16.972Z,61.16
2019-02-16T16:50:54.786Z,62.03
2019-02-16T16:53:32.728Z,61.92
2019-02-16T16:56:08.710Z,61.79
2019-02-16T16:58:40.746Z,62.10
2019-02-16T17:01:12.707Z,62.27
2019-02-16T17:03:54.126Z,63.24
2019-02-16T17:06:28.170Z,63.94
2019-02-16T17:09:01.283Z,63.26
2019-02-16T17:11:52.904Z,63.86
2019-02-16T17:14:33.884Z,65.77
2019-02-16T17:17:18.315Z,66.63
2019-02-16T17:20:07.190Z,66.86
2019-02-16T17:22:51.232Z,66.56
2019-02-16T17:25:26.487Z,65.95
2019-02-16T17:27:58.435Z,65.95
2019-02-16T17:30:36.048Z,66.43
2019-02-16T17:33:10.678Z,66.17
2019-02-16T17:35:42.664Z,66.55
2019-02-16T17:38:26.119Z,66.33
2019-02-16T17:41:04.946Z,66.52
2019-02-16T17:43:37.244Z,66.27
2019-02-16T17:46:18.141Z,67.00
2019-02-16T17:48:54.164Z,68.24
2019-02-16T17:51:42.606Z,67.40
2019-02-16T17:54:17.410Z,67.54
2019-02-16T17:57:05.438Z,68.04
2019-02-16T17:59:40.091Z,68.20
2019-02-16T18:02:29.512Z,67.67
2019-02-16T18:05:10.621Z,68.20
2019-02-16T18:07:45.439Z,68.52
2019-02-16T18:10:26.336Z,70.28
2019-02-16T18:12:58.321Z,70.11
2019-02-16T18:15:30.281Z,70.25
2019-02-16T18:18:02.217Z,69.44
2019-02-16T18:20:35.754Z,70.38
2019-02-16T18:23:07.678Z,70.64
2019-02-16T18:25:39.752Z,71.15
2019-02-16T18:28:13.773Z,70.53
2019-02-16T18:30:56.170Z,70.30
2019-02-16T18:33:33.854Z,70.61
2019-02-16T18:36:15.426Z,70.33
2019-02-16T18:38:48.717Z,70.21
2019-02-16T18:41:26.323Z,70.44
2019-02-16T18:44:04.273Z,69.77
2019-02-16T18:46:36.180Z,70.61
2019-02-16T18:49:10.962Z,70.25
2019-02-16T18:51:42.862Z,70.37
2019-02-16T18:54:14.868Z,70.59
2019-02-16T18:57:06.956Z,70.25
2019-02-16T18:59:47.383Z,69.76
2019-02-16T19:02:19.297Z,69.39
2019-02-16T19:05:09.229Z,69.18
2019-02-16T19:07:44.915Z,68.89
2019-02-16T19:10:19.537Z,68.67
2019-02-16T19:13:07.455Z,68.29
2019-02-16T19:15:48.408Z,68.29
2019-02-16T19:18:23.092Z,68.41
2019-02-16T19:21:06.961Z,67.90
2019-02-16T19:23:52.873Z,68.10
2019-02-16T19:26:33.700Z,68.02
2019-02-16T19:29:05.604Z,68.44
2019-02-16T19:31:44.674Z,68.44
2019-02-16T19:34:34.580Z,68.63
2019-02-16T19:37:18.219Z,68.08
2019-02-16T19:39:50.158Z,68.09
2019-02-16T19:42:22.406Z,68.08
2019-02-16T19:44:56.388Z,68.03
2019-02-16T19:47:38.415Z,68.17
2019-02-16T19:50:13.590Z,68.44
2019-02-16T19:52:57.508Z,68.37
2019-02-16T19:55:44.388Z,67.97
2019-02-16T19:58:21.321Z,67.78
2019-02-16T20:00:53.243Z,67.62
2019-02-16T20:03:25.427Z,67.25
2019-02-16T20:06:13.911Z,66.98
2019-02-16T20:08:54.955Z,66.94
2019-02-16T20:11:45.386Z,67.16
2019-02-16T20:14:26.375Z,67.38
2019-02-16T20:17:02.458Z,67.65
2019-02-16T20:19:40.841Z,67.90
2019-02-16T20:22:13.891Z,67.79
2019-02-16T20:24:51.479Z,67.94
2019-02-16T20:27:42.354Z,67.93
2019-02-16T20:30:23.955Z,68.54
2019-02-16T20:33:00.503Z,68.05
2019-02-16T20:35:48.702Z,68.51
2019-02-16T20:38:35.236Z,68.67
2019-02-16T20:41:25.271Z,68.62
2019-02-16T20:43:59.881Z,68.94
2019-02-16T20:46:34.617Z,69.25
2019-02-16T20:49:27.214Z,69.22
2019-02-16T20:52:18.342Z,69.09
2019-02-16T20:54:53.443Z,69.60
2019-02-16T20:57:47.381Z,69.16
2019-02-16T21:00:24.839Z,69.48
2019-02-16T21:03:03.870Z,69.51
2019-02-16T21:05:57.035Z,69.42
2019-02-16T21:08:40.461Z,69.54
2019-02-16T21:11:29.111Z,69.88
2019-02-16T21:14:05.480Z,69.85
2019-02-16T21:16:51.297Z,70.15
2019-02-16T21:19:32.436Z,69.70
2019-02-16T21:22:23.532Z,69.94
2019-02-16T21:24:58.083Z,69.88
2019-02-16T21:27:32.179Z,69.90
2019-02-16T21:30:19.245Z,69.92
2019-02-16T21:32:56.734Z,69.70
2019-02-16T21:35:38.709Z,70.08
2019-02-16T21:38:16.339Z,70.00
2019-02-16T21:41:02.937Z,69.85
2019-02-16T21:43:40.595Z,69.90
2019-02-16T21:46:27.848Z,69.82
2019-02-16T21:49:06.135Z,69.79
2019-02-16T21:51:41.388Z,69.63
2019-02-16T21:54:30.168Z,69.88
2019-02-16T21:57:02.302Z,69.80
2019-02-16T21:59:43.496Z,69.82
2019-02-16T22:02:32.778Z,69.73
2019-02-16T22:05:21.100Z,69.97
2019-02-16T22:08:09.105Z,70.19
2019-02-16T22:10:54.610Z,70.18
2019-02-16T22:13:28.319Z,70.50
2019-02-16T22:15:58.594Z,70.22
2019-02-16T22:18:28.847Z,70.00
2019-02-16T22:20:59.122Z,70.39
2019-02-16T22:23:30.547Z,70.47
2019-02-16T22:26:00.826Z,70.33
2019-02-16T22:28:31.363Z,70.15
2019-02-16T22:31:01.750Z,70.13
2019-02-16T22:33:32.032Z,70.28
2019-02-16T22:36:02.316Z,70.45
2019-02-16T22:38:32.579Z,70.20
2019-02-16T22:41:04.539Z,70.41
2019-02-16T22:43:36.421Z,70.79
2019-02-16T22:46:08.468Z,70.80
2019-02-16T22:48:39.751Z,70.65
2019-02-16T22:51:10.015Z,70.57
2019-02-16T22:53:40.340Z,71.07
2019-02-16T22:56:10.628Z,71.18
2019-02-16T22:58:40.904Z,71.14
2019-02-16T23:01:11.256Z,71.52
2019-02-16T23:03:43.132Z,71.13
2019-02-16T23:06:14.975Z,71.69
2019-02-16T23:08:45.252Z,71.29
2019-02-16T23:11:15.551Z,71.40
2019-02-16T23:13:45.824Z,71.41
2019-02-16T23:16:16.261Z,71.10
2019-02-16T23:18:46.537Z,71.10
2019-02-16T23:21:16.824Z,71.08
2019-02-16T23:23:47.097Z,71.00
2019-02-16T23:26:17.374Z,70.94
2019-02-16T23:28:47.643Z,70.85
2019-02-16T23:31:17.998Z,70.76
2019-02-16T23:33:49.910Z,71.06
2019-02-16T23:36:20.188Z,71.06
2019-02-16T23:38:50.439Z,71.35
2019-02-16T23:41:20.730Z,71.10
2019-02-16T23:43:50.992Z,71.09
2019-02-16T23:46:21.265Z,71.09
2019-02-16T23:48:51.523Z,71.38
2019-02-16T23:51:21.803Z,72.09
2019-02-16T23:53:52.043Z,72.06
2019-02-16T23:56:22.334Z,72.43
2019-02-16T23:58:52.760Z,72.43
